createdAt,value
2024-04-22T00:01:36.826Z,9.20
2024-04-22T00:04:07.070Z,8.57
2024-04-22T00:06:34.904Z,8.50
2024-04-22T00:09:03.807Z,8.40
2024-04-22T00:11:31.573Z,8.33
2024-04-22T00:13:59.312Z,8.03
2024-04-22T00:16:26.895Z,8.70
2024-04-22T00:18:54.909Z,7.90
2024-04-22T00:21:22.508Z,9.03
2024-04-22T00:23:50.105Z,7.80
2024-04-22T00:26:17.736Z,7.80
2024-04-22T00:28:45.599Z,7.70
2024-04-22T00:31:13.291Z,7.60
2024-04-22T00:33:40.908Z,7.77
2024-04-22T00:36:08.655Z,7.50
2024-04-22T00:38:36.688Z,8.20
2024-04-22T00:41:04.373Z,8.23
2024-04-22T00:43:32.032Z,7.80
2024-04-22T00:45:59.822Z,7.17
2024-04-22T00:48:28.555Z,7.33
2024-04-22T00:50:57.018Z,7.23
2024-04-22T00:53:24.986Z,7.60
2024-04-22T00:55:53.602Z,8.00
2024-04-22T00:58:22.071Z,7.63
2024-04-22T01:00:50.303Z,7.30
2024-04-22T01:03:18.090Z,6.67
2024-04-22T01:05:45.888Z,7.70
2024-04-22T01:08:13.652Z,6.93
2024-04-22T01:10:41.771Z,7.27
2024-04-22T01:13:09.743Z,8.17
2024-04-22T01:15:37.360Z,8.13
2024-04-22T01:18:05.147Z,7.83
2024-04-22T01:20:32.861Z,8.00
2024-04-22T01:23:00.521Z,8.27
2024-04-22T01:25:29.667Z,7.90
2024-04-22T01:27:57.290Z,8.20
2024-04-22T01:30:25.097Z,8.40
2024-04-22T01:32:52.853Z,8.37
2024-04-22T01:35:20.547Z,8.40
2024-04-22T01:37:48.271Z,8.80
2024-04-22T01:40:17.200Z,8.77
2024-04-22T01:42:44.897Z,8.77
2024-04-22T01:45:12.757Z,9.50
2024-04-22T01:47:40.991Z,8.50
2024-04-22T01:50:08.979Z,8.80
2024-04-22T01:52:36.681Z,8.87
2024-04-22T01:55:05.524Z,7.93
2024-04-22T01:57:34.278Z,8.03
2024-04-22T02:00:03.687Z,8.30
2024-04-22T02:02:39.385Z,7.40
2024-04-22T02:05:07.169Z,7.73
2024-04-22T02:07:34.891Z,7.70
2024-04-22T02:10:12.359Z,7.63
2024-04-22T02:12:45.371Z,7.33
2024-04-22T02:15:14.243Z,7.90
2024-04-22T02:17:42.137Z,7.53
2024-04-22T02:20:10.096Z,8.00
2024-04-22T02:22:37.845Z,7.57
2024-04-22T02:25:05.885Z,7.20
2024-04-22T02:27:33.614Z,7.50
2024-04-22T02:30:01.336Z,7.50
2024-04-22T02:32:32.003Z,7.50
2024-04-22T02:34:59.678Z,7.50
2024-04-22T02:37:27.446Z,7.90
2024-04-22T02:39:55.123Z,8.10
2024-04-22T02:42:22.861Z,8.43
2024-04-22T02:44:50.708Z,8.03
2024-04-22T02:47:18.385Z,8.37
2024-04-22T02:49:46.192Z,8.63
2024-04-22T02:52:13.800Z,9.10
2024-04-22T02:54:41.531Z,7.87
2024-04-22T02:57:09.331Z,8.60
2024-04-22T02:59:36.985Z,8.67
2024-04-22T03:02:04.687Z,8.80
2024-04-22T03:04:32.585Z,8.30
2024-04-22T03:07:02.395Z,8.80
2024-04-22T03:09:34.565Z,8.37
2024-04-22T03:12:03.193Z,8.10
2024-04-22T03:14:30.906Z,7.67
2024-04-22T03:16:58.806Z,7.10
2024-04-22T03:19:26.821Z,7.37
2024-04-22T03:21:54.615Z,7.53
2024-04-22T03:24:22.290Z,7.77
2024-04-22T03:26:49.940Z,7.57
2024-04-22T03:29:18.216Z,7.93
2024-04-22T03:31:45.976Z,7.90
2024-04-22T03:34:13.808Z,7.53
2024-04-22T03:36:42.081Z,8.17
2024-04-22T03:39:09.828Z,7.70
2024-04-22T03:41:37.560Z,7.80
2024-04-22T03:44:05.184Z,8.37
2024-04-22T03:46:51.726Z,8.17
2024-04-22T03:49:38.211Z,8.87
2024-04-22T03:52:06.258Z,7.97
2024-04-22T03:54:34.190Z,8.87
2024-04-22T03:57:01.851Z,7.33
2024-04-22T03:59:29.615Z,7.83
2024-04-22T04:01:57.312Z,7.90
2024-04-22T04:04:25.190Z,7.83
2024-04-22T04:06:52.955Z,7.10
2024-04-22T04:09:21.788Z,6.33
2024-04-22T04:11:50.213Z,7.10
2024-04-22T04:14:17.823Z,6.60
2024-04-22T04:16:45.666Z,7.00
2024-04-22T04:19:13.566Z,6.57
2024-04-22T04:21:41.365Z,6.87
2024-04-22T04:24:09.443Z,7.33
2024-04-22T04:26:39.486Z,7.10
2024-04-22T04:29:07.397Z,7.20
2024-04-22T04:31:35.295Z,7.27
2024-04-22T04:34:03.077Z,7.77
2024-04-22T04:36:30.712Z,6.57
2024-04-22T04:38:58.444Z,6.93
2024-04-22T04:41:26.121Z,7.20
2024-04-22T04:43:54.038Z,6.73
2024-04-22T04:46:21.668Z,6.80
2024-04-22T04:48:51.349Z,7.57
2024-04-22T04:51:20.423Z,7.37
2024-04-22T04:53:48.105Z,6.90
2024-04-22T04:56:15.953Z,7.27
2024-04-22T04:58:43.591Z,8.17
2024-04-22T05:01:11.526Z,7.37
2024-04-22T05:03:39.637Z,7.87
2024-04-22T05:06:07.299Z,8.03
2024-04-22T05:08:35.020Z,8.20
2024-04-22T05:11:06.066Z,8.80
2024-04-22T05:13:33.790Z,8.47
2024-04-22T05:16:01.471Z,8.63
2024-04-22T05:18:29.113Z,8.67
2024-04-22T05:20:56.747Z,9.33
2024-04-22T05:23:24.456Z,9.40
2024-04-22T05:25:52.030Z,10.40
2024-04-22T05:28:20.267Z,9.90
2024-04-22T05:30:48.063Z,10.77
2024-04-22T05:33:34.533Z,10.60
2024-04-22T05:36:13.392Z,10.23
2024-04-22T05:38:41.494Z,10.60
2024-04-22T05:41:10.477Z,10.80
2024-04-22T05:43:38.353Z,11.20
2024-04-22T05:46:10.080Z,11.40
2024-04-22T05:48:38.195Z,11.40
2024-04-22T05:51:06.143Z,12.07
2024-04-22T05:53:33.935Z,11.10
2024-04-22T05:56:01.643Z,10.70
2024-04-22T05:58:29.357Z,10.43
2024-04-22T06:00:57.166Z,10.97
2024-04-22T06:03:25.391Z,10.70
2024-04-22T06:05:52.994Z,10.50
2024-04-22T06:08:21.076Z,10.80
2024-04-22T06:10:48.866Z,10.03
2024-04-22T06:13:16.647Z,9.90
2024-04-22T06:15:44.339Z,9.00
2024-04-22T06:18:12.028Z,9.90
2024-04-22T06:20:39.805Z,9.63
2024-04-22T06:23:07.475Z,9.93
2024-04-22T06:25:35.301Z,9.50
2024-04-22T06:28:02.951Z,9.87
2024-04-22T06:30:30.631Z,10.60
2024-04-22T06:32:58.271Z,10.87
2024-04-22T06:35:26.022Z,10.50
2024-04-22T06:37:53.710Z,10.40
2024-04-22T06:40:22.796Z,10.10
2024-04-22T06:42:50.506Z,8.93
2024-04-22T06:45:18.167Z,10.40
2024-04-22T06:47:45.888Z,9.23
2024-04-22T06:50:15.088Z,9.63
2024-04-22T06:52:43.208Z,9.20
2024-04-22T06:55:10.984Z,9.33
2024-04-22T06:57:38.665Z,10.07
2024-04-22T07:00:06.660Z,9.97
2024-04-22T07:02:35.124Z,10.67
2024-04-22T07:05:03.172Z,10.80
2024-04-22T07:07:30.909Z,10.53
2024-04-22T07:09:58.603Z,10.57
2024-04-22T07:12:26.247Z,11.03
2024-04-22T07:14:53.958Z,11.10
2024-04-22T07:17:22.218Z,11.53
2024-04-22T07:19:54.987Z,11.33
2024-04-22T07:22:24.054Z,11.53
2024-04-22T07:25:01.294Z,12.47
2024-04-22T07:27:31.778Z,12.10
2024-04-22T07:30:00.874Z,12.13
2024-04-22T07:32:29.281Z,12.30
2024-04-22T07:34:57.282Z,13.33
2024-04-22T07:37:30.919Z,13.57
2024-04-22T07:40:02.685Z,12.67
2024-04-22T07:42:30.280Z,11.80
2024-04-22T07:44:58.309Z,13.37
2024-04-22T07:47:26.076Z,13.73
2024-04-22T07:49:53.839Z,13.67
2024-04-22T07:52:21.691Z,12.83
2024-04-22T07:54:49.499Z,13.03
2024-04-22T07:57:17.989Z,13.03
2024-04-22T07:59:46.064Z,11.37
2024-04-22T08:02:14.261Z,11.67
2024-04-22T08:04:42.922Z,11.03
2024-04-22T08:07:14.185Z,10.63
2024-04-22T08:09:42.430Z,10.30
2024-04-22T08:12:11.488Z,8.80
2024-04-22T08:14:39.129Z,9.53
2024-04-22T08:17:07.084Z,9.53
2024-04-22T08:19:35.173Z,9.03
2024-04-22T08:22:02.996Z,8.60
2024-04-22T08:24:30.856Z,9.33
2024-04-22T08:26:58.829Z,8.83
2024-04-22T08:29:26.635Z,8.97
2024-04-22T08:31:54.329Z,8.23
2024-04-22T08:34:21.965Z,8.90
2024-04-22T08:36:49.579Z,8.87
2024-04-22T08:39:17.336Z,8.37
2024-04-22T08:41:45.123Z,6.50
2024-04-22T08:44:13.293Z,5.47
2024-04-22T08:46:40.996Z,5.13
2024-04-22T08:49:09.421Z,5.18
2024-04-22T08:51:38.857Z,5.40
2024-04-22T08:54:06.709Z,5.57
2024-04-22T08:56:34.429Z,6.10
2024-04-22T08:59:02.101Z,5.60
2024-04-22T09:01:30.576Z,5.82
2024-04-22T09:03:59.550Z,5.43
2024-04-22T09:06:27.289Z,5.95
2024-04-22T09:08:55.673Z,6.40
2024-04-22T09:11:47.208Z,7.35
2024-04-22T09:14:11.508Z,7.40
2024-04-22T09:16:39.773Z,7.63
2024-04-22T09:19:07.591Z,7.20
2024-04-22T09:21:38.802Z,8.35
2024-04-22T09:24:11.053Z,8.25
2024-04-22T09:26:39.236Z,7.97
2024-04-22T09:29:09.134Z,7.53
2024-04-22T09:31:40.784Z,7.38
2024-04-22T09:34:12.117Z,7.95
2024-04-22T09:36:41.094Z,9.07
2024-04-22T09:39:13.151Z,10.38
2024-04-22T09:41:43.332Z,9.35
2024-04-22T09:44:14.105Z,9.10
2024-04-22T09:46:46.279Z,9.32
2024-04-22T09:49:16.261Z,9.18
2024-04-22T09:51:45.316Z,8.53
2024-04-22T09:54:13.048Z,9.07
2024-04-22T09:56:40.996Z,8.40
2024-04-22T09:59:09.997Z,8.50
2024-04-22T10:01:37.920Z,6.93
2024-04-22T10:04:06.008Z,7.45
2024-04-22T10:06:34.862Z,7.30
2024-04-22T10:09:02.914Z,6.97
2024-04-22T10:11:34.918Z,7.60
2024-04-22T10:14:18.045Z,7.05
2024-04-22T10:16:57.501Z,6.93
2024-04-22T10:19:29.505Z,6.65
2024-04-22T10:22:04.779Z,6.03
2024-04-22T10:24:39.544Z,5.78
2024-04-22T10:27:12.819Z,5.70
2024-04-22T10:29:43.245Z,5.60
2024-04-22T10:32:11.278Z,6.35
2024-04-22T10:34:45.856Z,6.50
2024-04-22T10:37:14.403Z,5.10
2024-04-22T10:39:42.761Z,5.53
2024-04-22T10:42:10.970Z,5.50
2024-04-22T10:44:43.503Z,5.63
2024-04-22T10:47:11.752Z,6.40
2024-04-22T10:49:39.588Z,6.45
2024-04-22T10:52:08.696Z,6.38
2024-04-22T10:54:36.722Z,5.85
2024-04-22T10:57:06.154Z,5.57
2024-04-22T10:59:33.983Z,6.10
2024-04-22T11:02:02.039Z,5.78
2024-04-22T11:04:30.540Z,6.30
2024-04-22T11:06:58.234Z,5.90
2024-04-22T11:09:27.619Z,6.10
2024-04-22T11:11:55.679Z,5.55
2024-04-22T11:14:23.662Z,5.70
2024-04-22T11:17:00.835Z,5.72
2024-04-22T11:19:29.145Z,5.60
2024-04-22T11:21:57.196Z,5.80
2024-04-22T11:24:25.105Z,5.82
2024-04-22T11:26:52.847Z,5.28
2024-04-22T11:29:20.975Z,5.72
2024-04-22T11:31:49.039Z,5.30
2024-04-22T11:34:17.569Z,5.25
2024-04-22T11:36:45.599Z,5.72
2024-04-22T11:39:14.235Z,4.90
2024-04-22T11:41:41.902Z,5.10
2024-04-22T11:44:09.553Z,4.82
2024-04-22T11:46:37.647Z,4.72
2024-04-22T11:49:05.538Z,4.95
2024-04-22T11:51:33.278Z,4.57
2024-04-22T11:54:01.368Z,4.85
2024-04-22T11:56:36.975Z,4.45
2024-04-22T11:59:08.231Z,4.43
2024-04-22T12:01:36.281Z,4.35
2024-04-22T12:04:04.051Z,4.50
2024-04-22T12:06:32.092Z,4.18
2024-04-22T12:09:02.036Z,4.22
2024-04-22T12:11:32.278Z,4.55
2024-04-22T12:14:00.091Z,4.20
2024-04-22T12:16:28.100Z,4.40
2024-04-22T12:18:55.801Z,5.10
2024-04-22T12:21:23.543Z,4.43
2024-04-22T12:23:51.119Z,4.93
2024-04-22T12:26:18.972Z,4.82
2024-04-22T12:28:46.739Z,4.78
2024-04-22T12:31:14.626Z,4.97
2024-04-22T12:33:51.268Z,5.10
2024-04-22T12:36:26.222Z,5.10
2024-04-22T12:38:53.988Z,5.25
2024-04-22T12:41:21.569Z,5.93
2024-04-22T12:43:49.229Z,5.47
2024-04-22T12:46:16.978Z,5.35
2024-04-22T12:49:03.661Z,5.95
2024-04-22T12:51:31.497Z,5.97
2024-04-22T12:53:59.190Z,5.82
2024-04-22T12:56:26.891Z,5.80
2024-04-22T12:58:54.822Z,5.43
2024-04-22T13:01:22.680Z,5.90
2024-04-22T13:03:50.513Z,5.55
2024-04-22T13:06:18.344Z,5.65
2024-04-22T13:08:45.996Z,5.03
2024-04-22T13:11:13.752Z,5.10
2024-04-22T13:13:41.578Z,5.45
2024-04-22T13:16:09.434Z,5.28
2024-04-22T13:18:37.159Z,5.18
2024-04-22T13:21:04.967Z,5.05
2024-04-22T13:23:32.713Z,4.68
2024-04-22T13:26:00.616Z,5.10
2024-04-22T13:28:28.668Z,5.78
2024-04-22T13:30:57.708Z,5.00
2024-04-22T13:33:25.901Z,5.20
2024-04-22T13:35:53.787Z,5.40
2024-04-22T13:38:21.415Z,5.30
2024-04-22T13:40:49.226Z,4.72
2024-04-22T13:43:16.983Z,4.35
2024-04-22T13:45:44.690Z,4.47
2024-04-22T13:48:14.078Z,4.60
2024-04-22T13:50:41.801Z,4.75
2024-04-22T13:53:20.013Z,5.30
2024-04-22T13:55:55.589Z,5.35
2024-04-22T13:58:23.264Z,5.55
2024-04-22T14:00:51.191Z,5.45
2024-04-22T14:03:18.969Z,5.55
2024-04-22T14:05:46.576Z,5.30
2024-04-22T14:08:14.231Z,5.40
2024-04-22T14:10:42.359Z,5.50
2024-04-22T14:13:10.180Z,5.55
2024-04-22T14:15:45.276Z,5.53
2024-04-22T14:18:15.879Z,6.20
2024-04-22T14:20:44.245Z,6.00
2024-04-22T14:23:11.895Z,5.85
2024-04-22T14:25:40.638Z,5.63
2024-04-22T14:28:08.391Z,5.88
2024-04-22T14:30:36.308Z,5.38
2024-04-22T14:33:04.330Z,5.80
2024-04-22T14:35:32.438Z,6.10
2024-04-22T14:38:02.018Z,6.50
2024-04-22T14:40:30.250Z,6.60
2024-04-22T14:42:58.101Z,6.43
2024-04-22T14:45:28.180Z,6.88
2024-04-22T14:47:56.061Z,7.35
2024-04-22T14:50:24.670Z,6.50
2024-04-22T14:52:52.557Z,6.55
2024-04-22T14:55:21.405Z,6.80
2024-04-22T14:57:49.119Z,6.47
2024-04-22T15:00:17.095Z,7.03
2024-04-22T15:02:44.876Z,6.57
2024-04-22T15:05:12.576Z,6.78
2024-04-22T15:07:41.005Z,6.47
2024-04-22T15:10:09.174Z,7.25
2024-04-22T15:12:37.480Z,7.10
2024-04-22T15:15:05.625Z,7.10
2024-04-22T15:17:33.664Z,7.18
2024-04-22T15:20:02.964Z,6.68
2024-04-22T15:22:30.799Z,6.07
2024-04-22T15:24:58.446Z,6.38
2024-04-22T15:27:26.169Z,6.60
2024-04-22T15:29:54.006Z,6.57
2024-04-22T15:32:21.803Z,6.63
2024-04-22T15:34:49.623Z,6.57
2024-04-22T15:37:19.836Z,6.28
2024-04-22T15:39:47.940Z,6.30
2024-04-22T15:42:15.679Z,7.05
2024-04-22T15:44:43.443Z,6.80
2024-04-22T15:47:11.150Z,6.30
2024-04-22T15:49:38.993Z,6.50
2024-04-22T15:52:07.431Z,6.10
2024-04-22T15:54:35.159Z,6.13
2024-04-22T15:57:03.070Z,5.95
2024-04-22T15:59:33.179Z,6.32
2024-04-22T16:02:00.912Z,5.68
2024-04-22T16:04:28.623Z,6.30
2024-04-22T16:06:56.220Z,6.38
2024-04-22T16:09:24.334Z,6.78
2024-04-22T16:11:52.557Z,6.15
2024-04-22T16:14:20.262Z,6.10
2024-04-22T16:16:47.942Z,6.43
2024-04-22T16:19:15.642Z,5.93
2024-04-22T16:21:43.441Z,6.23
2024-04-22T16:24:11.075Z,6.50
2024-04-22T16:26:38.718Z,6.07
2024-04-22T16:29:09.715Z,6.67
2024-04-22T16:31:37.562Z,6.53
2024-04-22T16:34:05.552Z,6.50
2024-04-22T16:36:33.592Z,6.70
2024-04-22T16:39:02.072Z,7.15
2024-04-22T16:41:30.239Z,6.28
2024-04-22T16:43:58.400Z,6.68
2024-04-22T16:46:27.700Z,6.93
2024-04-22T16:48:58.985Z,6.45
2024-04-22T16:51:26.742Z,6.43
2024-04-22T16:53:54.323Z,6.63
2024-04-22T16:56:22.044Z,6.55
2024-04-22T16:58:49.764Z,6.50
2024-04-22T17:01:17.747Z,6.55
2024-04-22T17:03:45.489Z,6.43
2024-04-22T17:06:13.220Z,7.30
2024-04-22T17:08:40.931Z,7.28
